Disney Magic — C6PT7 — position and weather

sailwx.info

Track history (hours):
 
Tides and Currents Weather Stations Pressure Air Temp Water Temp Dewpoint Dewpoint Depression Visibility Wind Speed Wind Dir Waves Ship Positions

Disney Magic

Last reported at 2015-Jul-30 01:32 UTC. Time now 2015-Jul-30 02:04 UTC.
Position N 59°57' E 030°11'.

Type: Passenger vessel. MMSI: 308516000.

Date/timePositionNaut miles runAvg speedWind from/ knotsBaromVisibWave heightAir tempDewpointWater temp
2015-Jul-30 01:32N 59°57' E 030°11'0 0.0
2015-Jul-30 00:32N 59°57' E 030°11'4 6.8
2015-Jul-30 00:00N 59°54' E 030°06'4 8.2 280 / 71004.510.8 16.713.314.0
2015-Jul-29 23:32N 59°57' E 030°11'0 0.0
2015-Jul-29 22:32N 59°57' E 030°11'0 0.0
2015-Jul-29 21:32N 59°57' E 030°11'0 0.0
2015-Jul-29 20:32N 59°57' E 030°11'0 0.0
2015-Jul-29 19:32N 59°57' E 030°11'0 0.0
2015-Jul-29 18:32N 59°57' E 030°11'0 0.0
2015-Jul-29 17:32N 59°57' E 030°11'0 0.0
2015-Jul-29 16:32N 59°57' E 030°11'0 0.0
2015-Jul-29 15:32N 59°57' E 030°11'0 0.0
2015-Jul-29 14:29N 59°57' E 030°11'0 0.0
2015-Jul-29 13:32N 59°57' E 030°11'0 0.0
2015-Jul-29 12:32N 59°57' E 030°11'0 0.0
2015-Jul-29 11:29N 59°57' E 030°11'0 0.0
2015-Jul-29 10:32N 59°57' E 030°11'0 0.0
2015-Jul-29 09:32N 59°57' E 030°11'0 0.0
2015-Jul-29 08:32N 59°57' E 030°11'0 0.0
2015-Jul-29 07:32N 59°57' E 030°11'0 0.0
2015-Jul-29 06:32N 59°57' E 030°11'0 0.0
2015-Jul-29 05:32N 59°57' E 030°11'0 0.0
2015-Jul-29 04:32N 59°57' E 030°11'2 1.6
2015-Jul-29 03:33N 59°57' E 030°08'1110.9
2015-Jul-29 02:34N 59°58' E 029°47'1211.9
2015-Jul-29 01:33N 60°01' E 029°23'5814.4
2015-Jul-28 21:34N 60°05' E 027°28'1616.2
2015-Jul-28 20:33N 59°58' E 026°59'1817.7
2015-Jul-28 19:33N 59°57' E 026°23'1616.1
2015-Jul-28 18:33N 59°53' E 025°53'1817.9
2015-Jul-28 17:33N 59°49' E 025°18'1313.3
2015-Jul-28 16:34N 59°55' E 024°55'8 0.8
2015-Jul-28 06:17N 60°03' E 024°54'1317.6
2015-Jul-28 05:33N 59°51' E 024°54'2921.5
2015-Jul-28 04:13N 59°41' E 023°60'1421.6
2015-Jul-28 03:33N 59°36' E 023°33'16015.5
2015-Jul-27 17:14N 59°22' E 018°18'710.3
2015-Jul-27 16:34N 59°19' E 018°06'0 0.2
2015-Jul-27 15:33N 59°19' E 018°06'0 0.0
2015-Jul-27 14:33N 59°19' E 018°06'0 0.0
2015-Jul-27 13:33N 59°19' E 018°06'0 0.0
2015-Jul-27 12:33N 59°19' E 018°06'0 0.0
2015-Jul-27 11:33N 59°19' E 018°06'0 0.0
2015-Jul-27 10:33N 59°19' E 018°06'0 0.0
2015-Jul-27 09:33N 59°19' E 018°06'0 0.0
2015-Jul-27 08:33N 59°19' E 018°06'0 0.0
2015-Jul-27 07:30N 59°19' E 018°06'2 1.8
2015-Jul-27 06:33N 59°19' E 018°09'9 9.2
2015-Jul-27 05:32N 59°23' E 018°27'12710.6
2015-Jul-26 17:33N 57°18' E 017°43'3924.9
2015-Jul-26 16:00N 56°42' E 017°18'9321.0 270 / 241004.310.8 1.519.013.814.0
2015-Jul-26 11:33N 55°33' E 015°25'2323.0
2015-Jul-26 10:33N 55°20' E 014°52'2020.2
2015-Jul-26 09:34N 55°08' E 014°23'2222.4
2015-Jul-26 08:33N 54°58' E 013°48'6321.1
2015-Jul-26 05:33N 54°27' E 012°12'2020.0
2015-Jul-26 04:33N 54°27' E 011°38'2222.0
2015-Jul-26 03:33N 54°37' E 011°04'9212.7
2015-Jul-25 20:17N 56°09' E 011°29'1012.8
2015-Jul-25 19:33N 56°09' E 011°46'1313.1
2015-Jul-25 18:34N 56°12' E 012°09'1313.3
2015-Jul-25 17:33N 56°08' E 012°31'1010.0
2015-Jul-25 16:33N 55°59' E 012°41'1616.2
2015-Jul-25 15:34N 55°43' E 012°39'2 1.9
2015-Jul-25 14:33N 55°42' E 012°36'0 0.0
2015-Jul-25 13:31N 55°42' E 012°36'0 0.0
2015-Jul-25 12:33N 55°42' E 012°36'0 0.0
2015-Jul-25 11:33N 55°42' E 012°36'0 0.0
2015-Jul-25 10:33N 55°42' E 012°36'0 0.0
2015-Jul-25 09:33N 55°42' E 012°36'0 0.0
2015-Jul-25 08:33N 55°42' E 012°36'0 0.0
2015-Jul-25 07:33N 55°42' E 012°36'0 0.0
2015-Jul-25 06:33N 55°42' E 012°36'0 0.0
2015-Jul-25 05:33N 55°42' E 012°36'0 0.0
2015-Jul-25 04:33N 55°42' E 012°36'0 0.0
2015-Jul-25 03:30N 55°42' E 012°36'0 0.0
2015-Jul-25 02:33N 55°42' E 012°36'0 0.0
2015-Jul-25 01:33N 55°42' E 012°36'0 0.0
2015-Jul-25 00:33N 55°42' E 012°36'0 0.0
2015-Jul-24 23:33N 55°42' E 012°36'0 0.0
2015-Jul-24 22:33N 55°42' E 012°36'0 0.0
2015-Jul-24 21:30N 55°42' E 012°36'0 0.0
2015-Jul-24 20:33N 55°42' E 012°36'0 0.0
2015-Jul-24 19:31N 55°42' E 012°36'0 0.0
2015-Jul-24 18:30N 55°42' E 012°36'0 0.0
2015-Jul-24 17:33N 55°42' E 012°36'0 0.0
2015-Jul-24 16:33N 55°42' E 012°36'0 0.0
2015-Jul-24 15:33N 55°42' E 012°36'0 0.0
2015-Jul-24 14:33N 55°42' E 012°36'0 0.0
2015-Jul-24 13:33N 55°42' E 012°36'0 0.0
2015-Jul-24 12:34N 55°42' E 012°36'0 0.0
2015-Jul-24 11:33N 55°42' E 012°36'0 0.0
2015-Jul-24 10:33N 55°42' E 012°36'0 0.0
2015-Jul-24 09:31N 55°42' E 012°36'0 0.0
2015-Jul-24 08:33N 55°42' E 012°36'0 0.0
2015-Jul-24 07:33N 55°42' E 012°36'0 0.0
2015-Jul-24 06:33N 55°42' E 012°36'2 2.0
2015-Jul-24 05:33N 55°43' E 012°39'1616.2
2015-Jul-24 04:33N 55°59' E 012°40'1616.0
2015-Jul-24 03:34N 56°11' E 012°21'1515.1
2015-Jul-24 02:33N 56°22' E 012°01'1616.0
2015-Jul-24 01:33N 56°37' E 011°52'1414.3
2015-Jul-24 00:33N 56°51' E 011°46'1615.9
2015-Jul-23 23:33N 57°06' E 011°38'1615.6
2015-Jul-23 22:34N 57°21' E 011°28'1515.3
2015-Jul-23 21:33N 57°33' E 011°12'1616.1
2015-Jul-23 20:33N 57°45' E 010°51'1716.9
2015-Jul-23 19:33N 57°49' E 010°20'11916.9
2015-Jul-23 12:32N 56°32' E 007°32'1717.7
2015-Jul-23 11:33N 56°16' E 007°21'4017.6
2015-Jul-23 09:16N 55°39' E 006°53'1217.6
2015-Jul-23 08:34N 55°28' E 006°43'2019.5
2015-Jul-23 07:33N 55°12' E 006°24'6721.1
2015-Jul-23 04:23N 54°19' E 005°12'1821.3
2015-Jul-23 03:33N 54°08' E 004°48'16119.9
2015-Jul-22 19:28N 51°48' E 002°38'2022.2
2015-Jul-22 18:33N 51°32' E 002°18'2222.3
2015-Jul-22 17:34N 51°13' E 002°00'2222.3
2015-Jul-22 16:34N 51°04' E 001°28'6 5.6
2015-Jul-22 15:31N 51°07' E 001°19'0 0.0
2015-Jul-22 14:31N 51°07' E 001°19'0 0.0
2015-Jul-22 13:22N 51°07' E 001°19'0 0.0
2015-Jul-22 12:16N 51°07' E 001°19'0 0.0
2015-Jul-22 11:25N 51°07' E 001°19'0 0.0
2015-Jul-22 10:31N 51°07' E 001°19'0 0.0
2015-Jul-22 08:28N 51°07' E 001°19'0 0.0
2015-Jul-22 07:31N 51°07' E 001°19'0 0.0
2015-Jul-22 06:25N 51°07' E 001°19'0 0.2
2015-Jul-22 05:33N 51°07' E 001°20'8 7.9
2015-Jul-22 04:33N 51°07' E 001°32'1313.5
2015-Jul-22 03:33N 51°17' E 001°48'1716.5
2015-Jul-22 02:33N 51°31' E 002°02'1817.7
2015-Jul-22 01:33N 51°44' E 002°21'4318.2
2015-Jul-21 23:10N 52°24' E 002°48'1218.3
2015-Jul-21 22:32N 52°35' E 002°56'2020.9
2015-Jul-21 21:33N 52°52' E 003°13'2020.1
2015-Jul-21 20:33N 53°11' E 003°24'2019.7
2015-Jul-21 19:33N 53°30' E 003°33'1919.3
2015-Jul-21 18:33N 53°47' E 003°49'711.6
2015-Jul-21 18:00N 53°48' E 004°00'1733.4 210 / 181013.310.8 1.018.010.615.0
2015-Jul-21 17:30N 54°01' E 004°19'2021.0
2015-Jul-21 16:32N 54°15' E 004°43'2320.8
2015-Jul-21 15:27N 54°33' E 005°05'19020.1
2015-Jul-21 06:00N 57°12' E 008°12'4225.3 120 / 181005.3 5.4 1.018.013.115.0
2015-Jul-21 04:21N 57°38' E 009°12'2619.0
2015-Jul-21 03:00N 57°42' E 010°00'1126.0 170 / 161009.3 1.014.010.515.0
2015-Jul-21 02:33N 57°48' E 010°18'1919.1
2015-Jul-21 01:33N 57°45' E 010°53'1818.3
2015-Jul-21 00:33N 57°32' E 011°18'2121.0
2015-Jul-20 23:33N 57°14' E 011°36'2121.3
2015-Jul-20 22:33N 56°54' E 011°49'1919.4
2015-Jul-20 21:33N 56°35' E 011°43'7819.1
2015-Jul-20 17:29N 55°20' E 011°03'1819.5
2015-Jul-20 16:33N 55°02' E 011°02'1919.0
2015-Jul-20 15:32N 54°44' E 010°50'2020.0
2015-Jul-20 14:33N 54°34' E 011°19'2020.4
2015-Jul-20 13:33N 54°26' E 011°52'1515.3
2015-Jul-20 12:33N 54°34' E 012°14'6319.8
2015-Jul-20 09:21N 55°02' E 013°53'1721.1
2015-Jul-20 08:33N 55°13' E 014°16'2221.6
2015-Jul-20 07:33N 55°29' E 014°41'2221.7
2015-Jul-20 06:32N 55°39' E 015°16'3220.4
2015-Jul-20 05:00N 55°42' E 016°12'6020.0 250 / 181006.310.8 1.016.012.715.0
2015-Jul-20 02:00N 56°00' E 017°54'   250 / 181005.310.8 1.016.012.715.0
Track history (hours):
 
Tides and Currents Weather Stations Pressure Air Temp Water Temp Dewpoint Dewpoint Depression Visibility Wind Speed Wind Dir Waves Ship Positions

Disney Magic

Last reported at 2015-Jul-30 01:32 UTC. Time now 2015-Jul-30 02:04 UTC.
Position N 59°57' E 030°11'.

Type: Passenger vessel. MMSI: 308516000.

Date/timePositionNaut miles runAvg speedWind from/ knotsBaromVisibWave heightAir tempDewpointWater temp
2015-Jul-30 01:32N 59°57' E 030°11'0 0.0
2015-Jul-30 00:32N 59°57' E 030°11'4 6.8
2015-Jul-30 00:00N 59°54' E 030°06'4 8.2 280 / 71004.510.8 16.713.314.0
2015-Jul-29 23:32N 59°57' E 030°11'0 0.0
2015-Jul-29 22:32N 59°57' E 030°11'0 0.0
2015-Jul-29 21:32N 59°57' E 030°11'0 0.0
2015-Jul-29 20:32N 59°57' E 030°11'0 0.0
2015-Jul-29 19:32N 59°57' E 030°11'0 0.0
2015-Jul-29 18:32N 59°57' E 030°11'0 0.0
2015-Jul-29 17:32N 59°57' E 030°11'0 0.0
2015-Jul-29 16:32N 59°57' E 030°11'0 0.0
2015-Jul-29 15:32N 59°57' E 030°11'0 0.0
2015-Jul-29 14:29N 59°57' E 030°11'0 0.0
2015-Jul-29 13:32N 59°57' E 030°11'0 0.0
2015-Jul-29 12:32N 59°57' E 030°11'0 0.0
2015-Jul-29 11:29N 59°57' E 030°11'0 0.0
2015-Jul-29 10:32N 59°57' E 030°11'0 0.0
2015-Jul-29 09:32N 59°57' E 030°11'0 0.0
2015-Jul-29 08:32N 59°57' E 030°11'0 0.0
2015-Jul-29 07:32N 59°57' E 030°11'0 0.0
2015-Jul-29 06:32N 59°57' E 030°11'0 0.0
2015-Jul-29 05:32N 59°57' E 030°11'0 0.0
2015-Jul-29 04:32N 59°57' E 030°11'2 1.6
2015-Jul-29 03:33N 59°57' E 030°08'1110.9
2015-Jul-29 02:34N 59°58' E 029°47'1211.9
2015-Jul-29 01:33N 60°01' E 029°23'5814.4
2015-Jul-28 21:34N 60°05' E 027°28'1616.2
2015-Jul-28 20:33N 59°58' E 026°59'1817.7
2015-Jul-28 19:33N 59°57' E 026°23'1616.1
2015-Jul-28 18:33N 59°53' E 025°53'1817.9
2015-Jul-28 17:33N 59°49' E 025°18'1313.3
2015-Jul-28 16:34N 59°55' E 024°55'8 0.8
2015-Jul-28 06:17N 60°03' E 024°54'1317.6
2015-Jul-28 05:33N 59°51' E 024°54'2921.5
2015-Jul-28 04:13N 59°41' E 023°60'1421.6
2015-Jul-28 03:33N 59°36' E 023°33'16015.5
2015-Jul-27 17:14N 59°22' E 018°18'710.3
2015-Jul-27 16:34N 59°19' E 018°06'0 0.2
2015-Jul-27 15:33N 59°19' E 018°06'0 0.0
2015-Jul-27 14:33N 59°19' E 018°06'0 0.0
2015-Jul-27 13:33N 59°19' E 018°06'0 0.0
2015-Jul-27 12:33N 59°19' E 018°06'0 0.0
2015-Jul-27 11:33N 59°19' E 018°06'0 0.0
2015-Jul-27 10:33N 59°19' E 018°06'0 0.0
2015-Jul-27 09:33N 59°19' E 018°06'0 0.0
2015-Jul-27 08:33N 59°19' E 018°06'0 0.0
2015-Jul-27 07:30N 59°19' E 018°06'2 1.8
2015-Jul-27 06:33N 59°19' E 018°09'9 9.2
2015-Jul-27 05:32N 59°23' E 018°27'12710.6
2015-Jul-26 17:33N 57°18' E 017°43'3924.9
2015-Jul-26 16:00N 56°42' E 017°18'9321.0 270 / 241004.310.8 1.519.013.814.0
2015-Jul-26 11:33N 55°33' E 015°25'2323.0
2015-Jul-26 10:33N 55°20' E 014°52'2020.2
2015-Jul-26 09:34N 55°08' E 014°23'2222.4
2015-Jul-26 08:33N 54°58' E 013°48'6321.1
2015-Jul-26 05:33N 54°27' E 012°12'2020.0
2015-Jul-26 04:33N 54°27' E 011°38'2222.0
2015-Jul-26 03:33N 54°37' E 011°04'9212.7
2015-Jul-25 20:17N 56°09' E 011°29'1012.8
2015-Jul-25 19:33N 56°09' E 011°46'1313.1
2015-Jul-25 18:34N 56°12' E 012°09'1313.3
2015-Jul-25 17:33N 56°08' E 012°31'1010.0
2015-Jul-25 16:33N 55°59' E 012°41'1616.2
2015-Jul-25 15:34N 55°43' E 012°39'2 1.9
2015-Jul-25 14:33N 55°42' E 012°36'0 0.0
2015-Jul-25 13:31N 55°42' E 012°36'0 0.0
2015-Jul-25 12:33N 55°42' E 012°36'0 0.0
2015-Jul-25 11:33N 55°42' E 012°36'0 0.0
2015-Jul-25 10:33N 55°42' E 012°36'0 0.0
2015-Jul-25 09:33N 55°42' E 012°36'0 0.0
2015-Jul-25 08:33N 55°42' E 012°36'0 0.0
2015-Jul-25 07:33N 55°42' E 012°36'0 0.0
2015-Jul-25 06:33N 55°42' E 012°36'0 0.0
2015-Jul-25 05:33N 55°42' E 012°36'0 0.0
2015-Jul-25 04:33N 55°42' E 012°36'0 0.0
2015-Jul-25 03:30N 55°42' E 012°36'0 0.0
2015-Jul-25 02:33N 55°42' E 012°36'0 0.0
2015-Jul-25 01:33N 55°42' E 012°36'0 0.0
2015-Jul-25 00:33N 55°42' E 012°36'0 0.0
2015-Jul-24 23:33N 55°42' E 012°36'0 0.0
2015-Jul-24 22:33N 55°42' E 012°36'0 0.0
2015-Jul-24 21:30N 55°42' E 012°36'0 0.0
2015-Jul-24 20:33N 55°42' E 012°36'0 0.0
2015-Jul-24 19:31N 55°42' E 012°36'0 0.0
2015-Jul-24 18:30N 55°42' E 012°36'0 0.0
2015-Jul-24 17:33N 55°42' E 012°36'0 0.0
2015-Jul-24 16:33N 55°42' E 012°36'0 0.0
2015-Jul-24 15:33N 55°42' E 012°36'0 0.0
2015-Jul-24 14:33N 55°42' E 012°36'0 0.0
2015-Jul-24 13:33N 55°42' E 012°36'0 0.0
2015-Jul-24 12:34N 55°42' E 012°36'0 0.0
2015-Jul-24 11:33N 55°42' E 012°36'0 0.0
2015-Jul-24 10:33N 55°42' E 012°36'0 0.0
2015-Jul-24 09:31N 55°42' E 012°36'0 0.0
2015-Jul-24 08:33N 55°42' E 012°36'0 0.0
2015-Jul-24 07:33N 55°42' E 012°36'0 0.0
2015-Jul-24 06:33N 55°42' E 012°36'2 2.0
2015-Jul-24 05:33N 55°43' E 012°39'1616.2
2015-Jul-24 04:33N 55°59' E 012°40'1616.0
2015-Jul-24 03:34N 56°11' E 012°21'1515.1
2015-Jul-24 02:33N 56°22' E 012°01'1616.0
2015-Jul-24 01:33N 56°37' E 011°52'1414.3
2015-Jul-24 00:33N 56°51' E 011°46'1615.9
2015-Jul-23 23:33N 57°06' E 011°38'1615.6
2015-Jul-23 22:34N 57°21' E 011°28'1515.3
2015-Jul-23 21:33N 57°33' E 011°12'1616.1
2015-Jul-23 20:33N 57°45' E 010°51'1716.9
2015-Jul-23 19:33N 57°49' E 010°20'11916.9
2015-Jul-23 12:32N 56°32' E 007°32'1717.7
2015-Jul-23 11:33N 56°16' E 007°21'4017.6
2015-Jul-23 09:16N 55°39' E 006°53'1217.6
2015-Jul-23 08:34N 55°28' E 006°43'2019.5
2015-Jul-23 07:33N 55°12' E 006°24'6721.1
2015-Jul-23 04:23N 54°19' E 005°12'1821.3
2015-Jul-23 03:33N 54°08' E 004°48'16119.9
2015-Jul-22 19:28N 51°48' E 002°38'2022.2
2015-Jul-22 18:33N 51°32' E 002°18'2222.3
2015-Jul-22 17:34N 51°13' E 002°00'2222.3
2015-Jul-22 16:34N 51°04' E 001°28'6 5.6
2015-Jul-22 15:31N 51°07' E 001°19'0 0.0
2015-Jul-22 14:31N 51°07' E 001°19'0 0.0
2015-Jul-22 13:22N 51°07' E 001°19'0 0.0
2015-Jul-22 12:16N 51°07' E 001°19'0 0.0
2015-Jul-22 11:25N 51°07' E 001°19'0 0.0
2015-Jul-22 10:31N 51°07' E 001°19'0 0.0
2015-Jul-22 08:28N 51°07' E 001°19'0 0.0
2015-Jul-22 07:31N 51°07' E 001°19'0 0.0
2015-Jul-22 06:25N 51°07' E 001°19'0 0.2
2015-Jul-22 05:33N 51°07' E 001°20'8 7.9
2015-Jul-22 04:33N 51°07' E 001°32'1313.5
2015-Jul-22 03:33N 51°17' E 001°48'1716.5
2015-Jul-22 02:33N 51°31' E 002°02'1817.7
2015-Jul-22 01:33N 51°44' E 002°21'4318.2
2015-Jul-21 23:10N 52°24' E 002°48'1218.3
2015-Jul-21 22:32N 52°35' E 002°56'2020.9
2015-Jul-21 21:33N 52°52' E 003°13'2020.1
2015-Jul-21 20:33N 53°11' E 003°24'2019.7
2015-Jul-21 19:33N 53°30' E 003°33'1919.3
2015-Jul-21 18:33N 53°47' E 003°49'711.6
2015-Jul-21 18:00N 53°48' E 004°00'1733.4 210 / 181013.310.8 1.018.010.615.0
2015-Jul-21 17:30N 54°01' E 004°19'2021.0
2015-Jul-21 16:32N 54°15' E 004°43'2320.8
2015-Jul-21 15:27N 54°33' E 005°05'19020.1
2015-Jul-21 06:00N 57°12' E 008°12'4225.3 120 / 181005.3 5.4 1.018.013.115.0
2015-Jul-21 04:21N 57°38' E 009°12'2619.0
2015-Jul-21 03:00N 57°42' E 010°00'1126.0 170 / 161009.3 1.014.010.515.0
2015-Jul-21 02:33N 57°48' E 010°18'1919.1
2015-Jul-21 01:33N 57°45' E 010°53'1818.3
2015-Jul-21 00:33N 57°32' E 011°18'2121.0
2015-Jul-20 23:33N 57°14' E 011°36'2121.3
2015-Jul-20 22:33N 56°54' E 011°49'1919.4
2015-Jul-20 21:33N 56°35' E 011°43'7819.1
2015-Jul-20 17:29N 55°20' E 011°03'1819.5
2015-Jul-20 16:33N 55°02' E 011°02'1919.0
2015-Jul-20 15:32N 54°44' E 010°50'2020.0
2015-Jul-20 14:33N 54°34' E 011°19'2020.4
2015-Jul-20 13:33N 54°26' E 011°52'1515.3
2015-Jul-20 12:33N 54°34' E 012°14'6319.8
2015-Jul-20 09:21N 55°02' E 013°53'1721.1
2015-Jul-20 08:33N 55°13' E 014°16'2221.6
2015-Jul-20 07:33N 55°29' E 014°41'2221.7
2015-Jul-20 06:32N 55°39' E 015°16'3220.4
2015-Jul-20 05:00N 55°42' E 016°12'6020.0 250 / 181006.310.8 1.016.012.715.0
2015-Jul-20 02:00N 56°00' E 017°54'   250 / 181005.310.8 1.016.012.715.0

Dump ship's entire track history